Crawfordville, Florida
Current Conditions -  °F | °C
As of 1:53 AM on Thursday 23 Oct 2014 (Local Time) from KTLH Reporting Station
Clear Clear  
Wind Chill: 57°   Ceiling: Unl
Heat Index: 57°   Visibility: 10mi
Dew Point: 46°   Wind: 3mph
Humidity: 67%   Direction: 350°N
Pressure: 30.05"   Gusts: NA
Location:  30.18°N, 84.38°W
Report Text: KTLH 230553Z AUTO 35003KT 10SM CLR 14/08 A3005 RMK AO2 SLP174 T01390078 10206 20106 58006 $
Loading
Personal Weather Stations






























Interactive Weather Map
Tropical Storm Tracking
New forecast layout! Learn more

10-Day Weather Forecast

Advertisements
Track Severe Weather on mobile